Portada
METAR-TAF:

METAR-TAF

Aeroports :

Buriram, Tailàndia

latitud: 15-13-46N, longitud: 103-15-04E, altitud: 180 m

Observació

L'informe es va fer fa 1 hora i 18 minuts, a les 02:00 UTC
Vent 5 kt del Sud, variant entre Sud/Sud-Est i Sud-Oest
Temperatura 29°C
Humitat 89%
Pressió 1011 hPa
Visibilitat: 7000 m
Núvols disperses a una alçada de 2000 ft

METAR: VTUO 240200Z 18005KT 150V230 7000 SCT020 29/27 Q1011 NOSIG

Hora: 10:18 (03:18 UTC)

Pronòstic

L'informe es va fer fa 4 hores i 18 minuts, a les 23:00 UTC
Pronòstic vàlid del 24 a les 00 UTC al 24 a les 24 UTC
Vent 5 kt del Sud-Oest
Visibilitat: 4000 m
Escasses núvols a una alçada de 3000 ft
boirina
Evolucionant progressivament
l' 24 a les 01 UTC al 24 a les 03 UTC
Visibilitat: 8000 m

TAF: VTUO 232300Z 2400/2424 22005KT 4000 BR FEW030 BECMG 2401/2403 8000 NSW

Observacions i pronòstics meteorològics de més de 4000 aeroports (METAR i TAF).

Les estacions disponibles són els punts grocs i vermells al mapa.

Posi el ratolí al punt desitjat per veure el nom de l'estació.

Feu clic per veure les observacions i els pronòstics meteorològics.

Per canviar el mapa: feu clic els botons verds amb una creu de color negre per apropar; al botó verd amb un guió per allunyar la imatge; o en les fletxes verdes per a mapes adjacents.


METAR-TAF: